Rina Amoretti — IBRR — position and weather

sailwx.info

Track history (hours):
 
Tides and Currents Weather Stations Pressure Air Temp Water Temp Dewpoint Dewpoint Depression Visibility Wind Speed Wind Dir Waves Ship Positions

Rina Amoretti

Last reported at 2015-Mar-03 12:31 UTC. Time now 2015-Mar-03 12:44 UTC.
Position N 40°49' E 014°18'.

Length 120 m; draft 8.2 m.

Type: Ship (hazmat cat A). MMSI: 247197000.

Date/timePositionNaut miles runAvg speedWind from/ knotsBaromVisibWave heightAir tempDewpointWater temp
2015-Mar-03 12:31N 40°49' E 014°18'0 0.0
2015-Mar-03 11:31N 40°49' E 014°18'0 0.0
2015-Mar-03 10:28N 40°49' E 014°18'0 0.0
2015-Mar-03 09:04N 40°49' E 014°18'0 0.0
2015-Mar-03 08:16N 40°49' E 014°18'0 0.0
2015-Mar-03 07:16N 40°49' E 014°18'1 0.7
2015-Mar-03 06:33N 40°48' E 014°18'1111.5
2015-Mar-03 05:33N 40°38' E 014°11'1211.7
2015-Mar-03 04:33N 40°27' E 014°12'  
2015-Feb-28 10:09N 38°19' E 015°30'813.0
2015-Feb-28 09:33N 38°19' E 015°20'5613.4
2015-Feb-28 05:20N 38°12' E 014°08'1013.5
2015-Feb-28 04:33N 38°12' E 013°55'1313.1
2015-Feb-28 03:34N 38°11' E 013°38'1110.3
2015-Feb-28 02:32N 38°06' E 013°26'0 0.1
2015-Feb-28 01:32N 38°06' E 013°26'0 0.0
2015-Feb-28 00:32N 38°06' E 013°26'0 0.0
2015-Feb-27 23:32N 38°06' E 013°26'0 0.0
2015-Feb-27 22:32N 38°06' E 013°26'0 0.0
2015-Feb-27 21:32N 38°06' E 013°26'0 0.0
2015-Feb-27 20:32N 38°06' E 013°26'0 0.0
2015-Feb-27 19:32N 38°06' E 013°26'0 0.0
2015-Feb-27 18:32N 38°06' E 013°26'0 0.0
2015-Feb-27 17:32N 38°06' E 013°26'0 0.0
2015-Feb-27 16:32N 38°06' E 013°26'0 0.0
2015-Feb-27 15:32N 38°06' E 013°26'0 0.0
2015-Feb-27 14:32N 38°06' E 013°26'0 0.0
2015-Feb-27 13:32N 38°06' E 013°26'0 0.0
2015-Feb-27 12:32N 38°06' E 013°26'0 0.0
2015-Feb-27 11:32N 38°06' E 013°26'0 0.0
2015-Feb-27 10:32N 38°06' E 013°26'0 0.0
2015-Feb-27 09:32N 38°06' E 013°26'1 0.9
2015-Feb-27 08:33N 38°07' E 013°26'0 0.1
2015-Feb-27 07:33N 38°07' E 013°26'0 0.0
2015-Feb-27 06:33N 38°07' E 013°26'0 0.0
2015-Feb-27 05:33N 38°07' E 013°26'0 0.0
2015-Feb-27 04:33N 38°07' E 013°26'0 0.0
2015-Feb-27 03:33N 38°07' E 013°26'0 0.0
2015-Feb-27 02:33N 38°07' E 013°26'0 0.0
2015-Feb-27 01:33N 38°07' E 013°26'0 0.0
2015-Feb-27 00:33N 38°07' E 013°26'0 0.0
2015-Feb-26 23:30N 38°07' E 013°26'0 0.0
2015-Feb-26 22:33N 38°07' E 013°26'0 0.0
2015-Feb-26 21:33N 38°07' E 013°26'0 0.0
2015-Feb-26 20:32N 38°07' E 013°26'0 0.0
2015-Feb-26 19:32N 38°07' E 013°26'0 0.0
2015-Feb-26 18:32N 38°07' E 013°26'0 0.0
2015-Feb-26 17:32N 38°07' E 013°26'0 0.0
2015-Feb-26 16:32N 38°07' E 013°26'0 0.0
2015-Feb-26 15:32N 38°07' E 013°26'5 5.3
2015-Feb-26 14:33N 38°09' E 013°32'1312.7
2015-Feb-26 13:33N 38°11' E 013°48'1212.4
2015-Feb-26 12:33N 38°12' E 014°04'1612.0
2015-Feb-26 11:13N 38°15' E 014°24'3312.3
2015-Feb-26 08:31N 38°18' E 015°06'1212.3
2015-Feb-26 07:33N 38°19' E 015°21'135 2.9
2015-Feb-24 09:33N 40°24' E 014°14'1111.6
2015-Feb-24 08:33N 40°35' E 014°11'1312.6
2015-Feb-24 07:32N 40°47' E 014°17'3 0.2
2015-Feb-23 12:14N 40°50' E 014°18'2 2.5
2015-Feb-23 11:16N 40°48' E 014°20'0 0.1
2015-Feb-23 10:34N 40°48' E 014°20'0 0.0
2015-Feb-23 09:33N 40°48' E 014°20'0 0.0
2015-Feb-23 08:30N 40°48' E 014°20'0 0.1
2015-Feb-23 07:18N 40°48' E 014°19'  
Track history (hours):
 
Tides and Currents Weather Stations Pressure Air Temp Water Temp Dewpoint Dewpoint Depression Visibility Wind Speed Wind Dir Waves Ship Positions

Rina Amoretti

Last reported at 2015-Mar-03 12:31 UTC. Time now 2015-Mar-03 12:44 UTC.
Position N 40°49' E 014°18'.

Length 120 m; draft 8.2 m.

Type: Ship (hazmat cat A). MMSI: 247197000.

Date/timePositionNaut miles runAvg speedWind from/ knotsBaromVisibWave heightAir tempDewpointWater temp
2015-Mar-03 12:31N 40°49' E 014°18'0 0.0
2015-Mar-03 11:31N 40°49' E 014°18'0 0.0
2015-Mar-03 10:28N 40°49' E 014°18'0 0.0
2015-Mar-03 09:04N 40°49' E 014°18'0 0.0
2015-Mar-03 08:16N 40°49' E 014°18'0 0.0
2015-Mar-03 07:16N 40°49' E 014°18'1 0.7
2015-Mar-03 06:33N 40°48' E 014°18'1111.5
2015-Mar-03 05:33N 40°38' E 014°11'1211.7
2015-Mar-03 04:33N 40°27' E 014°12'  
2015-Feb-28 10:09N 38°19' E 015°30'813.0
2015-Feb-28 09:33N 38°19' E 015°20'5613.4
2015-Feb-28 05:20N 38°12' E 014°08'1013.5
2015-Feb-28 04:33N 38°12' E 013°55'1313.1
2015-Feb-28 03:34N 38°11' E 013°38'1110.3
2015-Feb-28 02:32N 38°06' E 013°26'0 0.1
2015-Feb-28 01:32N 38°06' E 013°26'0 0.0
2015-Feb-28 00:32N 38°06' E 013°26'0 0.0
2015-Feb-27 23:32N 38°06' E 013°26'0 0.0
2015-Feb-27 22:32N 38°06' E 013°26'0 0.0
2015-Feb-27 21:32N 38°06' E 013°26'0 0.0
2015-Feb-27 20:32N 38°06' E 013°26'0 0.0
2015-Feb-27 19:32N 38°06' E 013°26'0 0.0
2015-Feb-27 18:32N 38°06' E 013°26'0 0.0
2015-Feb-27 17:32N 38°06' E 013°26'0 0.0
2015-Feb-27 16:32N 38°06' E 013°26'0 0.0
2015-Feb-27 15:32N 38°06' E 013°26'0 0.0
2015-Feb-27 14:32N 38°06' E 013°26'0 0.0
2015-Feb-27 13:32N 38°06' E 013°26'0 0.0
2015-Feb-27 12:32N 38°06' E 013°26'0 0.0
2015-Feb-27 11:32N 38°06' E 013°26'0 0.0
2015-Feb-27 10:32N 38°06' E 013°26'0 0.0
2015-Feb-27 09:32N 38°06' E 013°26'1 0.9
2015-Feb-27 08:33N 38°07' E 013°26'0 0.1
2015-Feb-27 07:33N 38°07' E 013°26'0 0.0
2015-Feb-27 06:33N 38°07' E 013°26'0 0.0
2015-Feb-27 05:33N 38°07' E 013°26'0 0.0
2015-Feb-27 04:33N 38°07' E 013°26'0 0.0
2015-Feb-27 03:33N 38°07' E 013°26'0 0.0
2015-Feb-27 02:33N 38°07' E 013°26'0 0.0
2015-Feb-27 01:33N 38°07' E 013°26'0 0.0
2015-Feb-27 00:33N 38°07' E 013°26'0 0.0
2015-Feb-26 23:30N 38°07' E 013°26'0 0.0
2015-Feb-26 22:33N 38°07' E 013°26'0 0.0
2015-Feb-26 21:33N 38°07' E 013°26'0 0.0
2015-Feb-26 20:32N 38°07' E 013°26'0 0.0
2015-Feb-26 19:32N 38°07' E 013°26'0 0.0
2015-Feb-26 18:32N 38°07' E 013°26'0 0.0
2015-Feb-26 17:32N 38°07' E 013°26'0 0.0
2015-Feb-26 16:32N 38°07' E 013°26'0 0.0
2015-Feb-26 15:32N 38°07' E 013°26'5 5.3
2015-Feb-26 14:33N 38°09' E 013°32'1312.7
2015-Feb-26 13:33N 38°11' E 013°48'1212.4
2015-Feb-26 12:33N 38°12' E 014°04'1612.0
2015-Feb-26 11:13N 38°15' E 014°24'3312.3
2015-Feb-26 08:31N 38°18' E 015°06'1212.3
2015-Feb-26 07:33N 38°19' E 015°21'135 2.9
2015-Feb-24 09:33N 40°24' E 014°14'1111.6
2015-Feb-24 08:33N 40°35' E 014°11'1312.6
2015-Feb-24 07:32N 40°47' E 014°17'3 0.2
2015-Feb-23 12:14N 40°50' E 014°18'2 2.5
2015-Feb-23 11:16N 40°48' E 014°20'0 0.1
2015-Feb-23 10:34N 40°48' E 014°20'0 0.0
2015-Feb-23 09:33N 40°48' E 014°20'0 0.0
2015-Feb-23 08:30N 40°48' E 014°20'0 0.1
2015-Feb-23 07:18N 40°48' E 014°19'  

Dump ship's entire track history